| Date | Time | Temp. (oF) | Dew Point (oF) | Rel. Hum. (%) | Press. (in.) | Wind Dir. | Wind Speed (mph) | Hourly Rainfall (in.) |
|
|---|---|---|---|---|---|---|---|---|---|
| 1 | 11/11 | 00:00 | 50 | 28 | 43 | 29.88 | WNW | 6 | 0.00 |
| 2 | 11/10 | 23:00 | 46 | 24 | 43 | 29.84 | WSW | 2 | 0.00 |
| 3 | 11/10 | 22:00 | 48 | 23 | 38 | 29.84 | SSW | 0 | 0.00 |
| 4 | 11/10 | 21:00 | 52 | 23 | 33 | 29.84 | SSW | 1 | 0.00 |
| 5 | 11/10 | 20:00 | 56 | 23 | 28 | 29.84 | WSW | 2 | 0.00 |
| 6 | 11/10 | 19:00 | 58 | 21 | 24 | 29.82 | SSW | 5 | 0.00 |
| 7 | 11/10 | 18:00 | 60 | 19 | 21 | 29.80 | S | 8 | 0.00 |
| 8 | 11/10 | 17:00 | 62 | 21 | 21 | 29.78 | S | 8 | 0.00 |
| 9 | 11/10 | 16:00 | 65 | 22 | 20 | 29.78 | SSE | 10 | 0.00 |
| 10 | 11/10 | 15:00 | 66 | 23 | 20 | 29.81 | SSW | 7 | 0.00 |
| 11 | 11/10 | 14:00 | 65 | 21 | 19 | 29.86 | SSW | 9 | 0.00 |
| 12 | 11/10 | 13:00 | 64 | 21 | 20 | 29.91 | NW | 13 | 0.00 |
| 13 | 11/10 | 12:00 | 63 | 20 | 20 | 29.97 | S | 4 | 0.00 |
| 14 | 11/10 | 11:00 | 59 | 21 | 24 | 30.03 | SW | 9 | 0.00 |
| 15 | 11/10 | 10:00 | 51 | 32 | 49 | 30.06 | SW | 1 | 0.00 |
| 16 | 11/10 | 09:00 | 45 | 32 | 62 | 30.09 | SSW | 3 | 0.00 |
| 17 | 11/10 | 08:00 | 35 | 31 | 88 | 30.11 | SSW | 2 | 0.00 |
| 18 | 11/10 | 07:00 | 30 | 28 | 94 | 30.13 | WSW | 0 | 0.00 |
| 19 | 11/10 | 06:00 | 30 | 27 | 92 | 30.15 | SSW | 0 | 0.00 |
| 20 | 11/10 | 05:00 | 30 | 27 | 89 | 30.17 | SSW | 0 | 0.00 |
| 21 | 11/10 | 04:00 | 32 | 29 | 92 | 30.18 | SSW | 2 | 0.00 |
| 22 | 11/10 | 03:00 | 31 | 28 | 90 | 30.20 | SW | 1 | 0.00 |
| 23 | 11/10 | 02:00 | 31 | 28 | 90 | 30.20 | SSW | 2 | 0.00 |
| 24 | 11/10 | 01:00 | 31 | 27 | 86 | 30.21 | SSW | 0 | 0.00 |